createdAt,value
2023-09-25T00:01:23.007Z,10.30
2023-09-25T00:03:50.785Z,10.50
2023-09-25T00:06:18.113Z,10.50
2023-09-25T00:08:45.072Z,10.50
2023-09-25T00:11:11.961Z,10.10
2023-09-25T00:13:39.212Z,9.70
2023-09-25T00:16:08.323Z,9.90
2023-09-25T00:18:36.274Z,9.50
2023-09-25T00:21:03.623Z,9.40
2023-09-25T00:23:30.696Z,9.50
2023-09-25T00:26:05.268Z,9.40
2023-09-25T00:28:32.491Z,9.30
2023-09-25T00:31:00.029Z,9.40
2023-09-25T00:33:27.661Z,9.50
2023-09-25T00:35:55.063Z,9.50
2023-09-25T00:38:22.186Z,9.50
2023-09-25T00:40:49.488Z,9.60
2023-09-25T00:43:16.508Z,9.60
2023-09-25T00:45:45.539Z,9.20
2023-09-25T00:48:28.530Z,9.30
2023-09-25T00:51:00.494Z,9.30
2023-09-25T00:53:27.856Z,9.10
2023-09-25T00:55:56.176Z,9.20
2023-09-25T00:58:25.590Z,9.30
2023-09-25T01:00:53.980Z,9.30
2023-09-25T01:03:21.124Z,9.10
2023-09-25T01:05:51.247Z,9.10
2023-09-25T01:08:18.309Z,9.10
2023-09-25T01:10:45.829Z,8.90
2023-09-25T01:13:13.020Z,9.00
2023-09-25T01:15:40.747Z,9.00
2023-09-25T01:18:09.535Z,9.00
2023-09-25T01:20:37.588Z,8.90
2023-09-25T01:23:04.902Z,8.90
2023-09-25T01:25:31.995Z,9.10
2023-09-25T01:27:58.972Z,9.10
2023-09-25T01:30:27.400Z,9.00
2023-09-25T01:32:54.890Z,8.90
2023-09-25T01:35:27.911Z,8.90
2023-09-25T01:37:59.908Z,8.60
2023-09-25T01:40:27.517Z,8.60
2023-09-25T01:42:54.718Z,8.60
2023-09-25T01:45:21.714Z,8.60
2023-09-25T01:47:52.309Z,8.60
2023-09-25T01:50:21.787Z,8.70
2023-09-25T01:52:50.882Z,8.80
2023-09-25T01:55:17.995Z,8.90
2023-09-25T01:57:45.122Z,8.50
2023-09-25T02:00:13.964Z,8.70
2023-09-25T02:02:44.654Z,8.70
2023-09-25T02:05:12.071Z,8.50
2023-09-25T02:07:39.850Z,8.60
2023-09-25T02:10:08.104Z,8.30
2023-09-25T02:12:36.506Z,8.40
2023-09-25T02:15:07.429Z,8.50
2023-09-25T02:17:35.341Z,8.60
2023-09-25T02:20:47.688Z,8.50
2023-09-25T02:23:17.347Z,8.60
2023-09-25T02:25:50.274Z,8.40
2023-09-25T02:28:29.209Z,8.30
2023-09-25T02:34:43.980Z,8.50
2023-09-25T02:37:10.977Z,8.50
2023-09-25T02:39:38.417Z,8.50
2023-09-25T02:42:05.498Z,8.60
2023-09-25T02:44:32.666Z,8.60
2023-09-25T02:46:59.697Z,8.40
2023-09-25T02:49:26.833Z,8.30
2023-09-25T02:51:54.111Z,8.40
2023-09-25T02:54:21.204Z,8.20
2023-09-25T02:56:48.217Z,8.20
2023-09-25T02:59:15.310Z,8.30
2023-09-25T03:01:43.635Z,8.20
2023-09-25T03:04:13.325Z,8.20
2023-09-25T03:06:40.400Z,8.20
2023-09-25T03:09:07.557Z,8.20
2023-09-25T03:11:34.629Z,8.30
2023-09-25T03:14:03.765Z,8.40
2023-09-25T03:16:32.231Z,8.00
2023-09-25T03:18:59.457Z,8.10
2023-09-25T03:21:26.646Z,8.10
2023-09-25T03:23:55.889Z,8.20
2023-09-25T03:26:23.240Z,8.20
2023-09-25T03:28:51.165Z,8.20
2023-09-25T03:31:18.511Z,8.30
2023-09-25T03:33:48.052Z,8.10
2023-09-25T03:36:29.357Z,7.90
2023-09-25T03:39:01.812Z,7.80
2023-09-25T03:49:03.128Z,8.30
2023-09-25T04:05:24.710Z,8.00
2023-09-25T04:07:51.871Z,8.00
2023-09-25T04:10:20.192Z,7.90
2023-09-25T04:12:47.298Z,8.00
2023-09-25T04:15:15.426Z,8.20
2023-09-25T04:17:42.853Z,8.10
2023-09-25T04:20:16.810Z,8.20
2023-09-25T04:22:43.781Z,8.30
2023-09-25T04:25:19.777Z,8.40
2023-09-25T04:27:52.180Z,8.50
2023-09-25T04:30:19.666Z,8.60
2023-09-25T04:32:48.042Z,8.60
2023-09-25T04:35:16.498Z,8.70
2023-09-25T04:37:47.197Z,8.70
2023-09-25T04:40:34.820Z,8.80
2023-09-25T04:43:02.067Z,8.80
2023-09-25T04:45:31.416Z,8.90
2023-09-25T04:47:58.997Z,8.90
2023-09-25T04:50:49.139Z,8.80
2023-09-25T04:56:25.720Z,8.70
2023-09-25T04:58:53.392Z,8.90
2023-09-25T05:01:21.043Z,8.90
2023-09-25T05:03:48.149Z,9.00
2023-09-25T05:06:15.080Z,9.00
2023-09-25T05:08:41.970Z,9.10
2023-09-25T05:11:08.847Z,9.20
2023-09-25T05:13:35.699Z,9.30
2023-09-25T05:16:05.584Z,9.30
2023-09-25T05:18:33.004Z,9.30
2023-09-25T05:21:00.399Z,9.40
2023-09-25T05:23:27.219Z,9.40
2023-09-25T05:25:59.609Z,9.40
2023-09-25T05:28:26.482Z,9.40
2023-09-25T05:30:57.486Z,9.50
2023-09-25T05:33:24.556Z,9.50
2023-09-25T05:35:52.897Z,9.60
2023-09-25T05:38:20.093Z,9.60
2023-09-25T05:40:47.471Z,9.70
2023-09-25T05:43:14.336Z,9.70
2023-09-25T05:45:41.198Z,9.70
2023-09-25T05:48:08.672Z,9.70
2023-09-25T05:50:37.464Z,9.80
2023-09-25T05:53:05.266Z,9.90
2023-09-25T05:55:32.649Z,9.90
2023-09-25T05:57:59.564Z,10.00
2023-09-25T06:00:26.606Z,10.00
2023-09-25T06:02:53.689Z,10.10
2023-09-25T06:05:20.778Z,10.10
2023-09-25T06:07:47.680Z,10.20
2023-09-25T06:10:14.870Z,10.30
2023-09-25T06:12:41.900Z,10.30
2023-09-25T06:15:12.786Z,10.30
2023-09-25T06:17:41.122Z,10.40
2023-09-25T06:20:16.839Z,10.50
2023-09-25T06:22:45.535Z,10.50
2023-09-25T06:25:18.710Z,10.50
2023-09-25T06:27:46.875Z,10.60
2023-09-25T06:30:15.239Z,10.60
2023-09-25T06:32:42.225Z,10.60
2023-09-25T06:35:09.729Z,10.70
2023-09-25T06:37:39.539Z,10.80
2023-09-25T06:40:11.342Z,10.80
2023-09-25T06:42:40.250Z,10.80
2023-09-25T06:45:07.850Z,10.90
2023-09-25T06:47:38.336Z,10.90
2023-09-25T06:50:06.660Z,10.90
2023-09-25T06:52:33.549Z,10.90
2023-09-25T06:55:00.423Z,10.90
2023-09-25T06:57:27.350Z,11.00
2023-09-25T06:59:54.295Z,11.00
2023-09-25T07:02:21.856Z,11.10
2023-09-25T07:04:49.590Z,11.10
2023-09-25T07:07:16.663Z,11.10
2023-09-25T07:09:44.159Z,11.10
2023-09-25T07:12:15.323Z,11.10
2023-09-25T07:14:45.896Z,11.10
2023-09-25T07:17:12.780Z,11.10
2023-09-25T07:19:39.679Z,11.20
2023-09-25T07:22:07.302Z,11.20
2023-09-25T07:24:34.204Z,11.20
2023-09-25T07:27:01.110Z,11.30
2023-09-25T07:29:40.743Z,11.20
2023-09-25T07:32:09.104Z,11.30
2023-09-25T07:34:36.104Z,11.50
2023-09-25T07:37:05.809Z,11.50
2023-09-25T07:39:36.071Z,11.40
2023-09-25T07:42:03.488Z,11.40
2023-09-25T07:44:32.453Z,11.50
2023-09-25T07:47:01.075Z,11.60
2023-09-25T07:49:29.034Z,11.60
2023-09-25T07:51:56.007Z,11.70
2023-09-25T07:54:22.887Z,11.70
2023-09-25T07:56:50.044Z,11.70
2023-09-25T07:59:16.890Z,11.80
2023-09-25T08:01:43.852Z,11.90
2023-09-25T08:04:10.982Z,11.90
2023-09-25T08:06:38.027Z,12.00
2023-09-25T08:09:06.032Z,12.00
2023-09-25T08:11:32.831Z,12.10
2023-09-25T08:13:59.678Z,12.20
2023-09-25T08:16:28.451Z,12.20
2023-09-25T08:18:55.488Z,12.10
2023-09-25T08:21:22.592Z,12.10
2023-09-25T08:23:49.493Z,12.10
2023-09-25T08:26:17.758Z,12.10
2023-09-25T08:28:44.669Z,12.20
2023-09-25T08:31:11.531Z,12.20
2023-09-25T08:33:38.434Z,12.20
2023-09-25T08:36:09.502Z,12.30
2023-09-25T08:38:36.350Z,12.20
2023-09-25T08:41:03.835Z,12.30
2023-09-25T08:43:31.223Z,12.40
2023-09-25T08:45:59.016Z,12.30
2023-09-25T08:48:25.958Z,12.30
2023-09-25T08:50:53.320Z,12.40
2023-09-25T08:53:20.247Z,12.50
2023-09-25T08:55:47.194Z,12.40
2023-09-25T08:58:14.643Z,12.40
2023-09-25T09:00:42.456Z,12.50
2023-09-25T09:03:09.437Z,12.60
2023-09-25T09:05:36.691Z,12.50
2023-09-25T09:08:07.034Z,12.60
2023-09-25T09:10:36.004Z,12.60
2023-09-25T09:13:08.663Z,12.60
2023-09-25T09:15:36.019Z,12.80
2023-09-25T09:18:24.857Z,12.80
2023-09-25T09:20:54.510Z,12.90
2023-09-25T09:23:21.387Z,12.90
2023-09-25T09:25:50.818Z,12.90
2023-09-25T09:28:17.664Z,13.00
2023-09-25T09:30:44.649Z,13.00
2023-09-25T09:33:11.992Z,13.10
2023-09-25T09:35:39.131Z,13.20
2023-09-25T09:38:08.885Z,13.10
2023-09-25T09:40:35.929Z,13.30
2023-09-25T09:43:04.384Z,13.30
2023-09-25T09:45:32.570Z,13.30
2023-09-25T09:48:02.277Z,13.40
2023-09-25T09:50:29.918Z,13.50
2023-09-25T09:53:00.952Z,13.60
2023-09-25T09:55:32.838Z,13.70
2023-09-25T09:58:01.551Z,13.70
2023-09-25T10:00:28.890Z,13.80
2023-09-25T10:02:56.677Z,13.80
2023-09-25T10:05:23.755Z,13.80
2023-09-25T10:08:11.484Z,13.70
2023-09-25T10:10:46.921Z,13.70
2023-09-25T10:13:27.178Z,13.70
2023-09-25T10:16:02.343Z,13.80
2023-09-25T10:18:30.589Z,13.90
2023-09-25T10:21:12.571Z,13.90
2023-09-25T10:23:44.487Z,13.90
2023-09-25T10:26:33.077Z,14.10
2023-09-25T10:29:11.877Z,14.20
2023-09-25T10:31:38.847Z,14.20
2023-09-25T10:34:09.829Z,14.20
2023-09-25T10:36:42.680Z,14.30
2023-09-25T10:39:10.798Z,14.50
2023-09-25T10:41:38.783Z,14.60
2023-09-25T10:44:06.112Z,14.60
2023-09-25T10:46:33.214Z,14.80
2023-09-25T10:49:01.786Z,15.00
2023-09-25T10:51:28.778Z,15.10
2023-09-25T10:53:55.830Z,15.10
2023-09-25T10:56:22.845Z,15.10
2023-09-25T10:58:53.944Z,15.10
2023-09-25T11:01:31.680Z,15.20
2023-09-25T11:04:02.530Z,15.30
2023-09-25T11:06:30.349Z,15.30
2023-09-25T11:09:09.010Z,15.50
2023-09-25T11:11:36.127Z,15.60
2023-09-25T11:14:03.862Z,15.60
2023-09-25T11:16:30.940Z,15.60
2023-09-25T11:19:17.227Z,15.70
2023-09-25T11:21:48.664Z,15.60
2023-09-25T11:24:16.421Z,15.50
2023-09-25T11:26:44.692Z,15.60
2023-09-25T11:29:13.284Z,15.60
2023-09-25T11:34:11.067Z,15.80
2023-09-25T11:36:45.777Z,15.80
2023-09-25T11:39:19.118Z,15.70
2023-09-25T11:41:46.823Z,15.70
2023-09-25T11:44:15.281Z,15.80
2023-09-25T11:46:44.179Z,15.90
2023-09-25T11:49:11.304Z,15.90
2023-09-25T11:51:38.254Z,15.90
2023-09-25T11:54:06.328Z,16.00
2023-09-25T11:56:34.122Z,16.00
2023-09-25T11:59:01.789Z,16.00
2023-09-25T12:01:29.680Z,16.00
2023-09-25T12:03:57.502Z,16.00
2023-09-25T12:06:27.932Z,16.00
2023-09-25T12:08:56.271Z,16.10
2023-09-25T12:11:23.438Z,16.10
2023-09-25T12:13:51.141Z,16.20
2023-09-25T12:16:19.345Z,16.20
2023-09-25T12:18:47.366Z,16.30
2023-09-25T12:21:15.282Z,16.30
2023-09-25T12:23:42.827Z,16.30
2023-09-25T12:26:11.298Z,16.30
2023-09-25T12:32:25.891Z,16.40
2023-09-25T12:34:52.775Z,16.40
2023-09-25T12:37:19.625Z,16.50
2023-09-25T12:40:05.030Z,16.60
2023-09-25T12:42:47.082Z,16.70
2023-09-25T12:45:18.539Z,16.60
2023-09-25T12:48:26.567Z,16.80
2023-09-25T12:54:40.849Z,17.00
2023-09-25T13:01:05.110Z,17.60
2023-09-25T13:03:32.774Z,17.60
2023-09-25T13:05:59.972Z,17.50
2023-09-25T13:08:26.878Z,17.40
2023-09-25T13:14:43.887Z,17.30
2023-09-25T13:17:11.645Z,17.30
2023-09-25T13:19:42.982Z,17.20
2023-09-25T13:22:32.794Z,17.20
2023-09-25T13:25:00.859Z,17.20
2023-09-25T13:27:27.809Z,17.20
2023-09-25T13:29:54.708Z,17.20
2023-09-25T13:32:21.622Z,17.10
2023-09-25T13:34:48.532Z,17.10
2023-09-25T13:37:15.795Z,17.10
2023-09-25T13:39:42.736Z,17.00
2023-09-25T13:42:11.482Z,17.00
2023-09-25T13:44:38.520Z,17.00
2023-09-25T13:47:05.387Z,17.00
2023-09-25T13:49:32.256Z,16.90
2023-09-25T13:55:39.887Z,17.00
2023-09-25T13:58:06.748Z,17.00
2023-09-25T14:00:36.258Z,17.00
2023-09-25T14:03:03.321Z,17.00
2023-09-25T14:05:30.993Z,17.00
2023-09-25T14:07:57.821Z,17.10
2023-09-25T14:10:24.761Z,17.00
2023-09-25T14:12:52.506Z,17.00
2023-09-25T14:15:19.565Z,17.00
2023-09-25T14:17:46.474Z,17.00
2023-09-25T14:20:13.345Z,17.00
2023-09-25T14:22:41.315Z,16.90
2023-09-25T14:25:08.651Z,17.10
2023-09-25T14:27:35.949Z,17.10
2023-09-25T14:30:02.912Z,17.10
2023-09-25T14:32:29.838Z,17.10
2023-09-25T14:34:56.877Z,17.20
2023-09-25T14:41:11.170Z,17.20
2023-09-25T14:43:37.971Z,17.20
2023-09-25T14:46:04.939Z,17.20
2023-09-25T14:48:33.986Z,17.20
2023-09-25T14:51:04.203Z,17.30
2023-09-25T14:53:32.251Z,17.20
2023-09-25T14:55:59.094Z,17.20
2023-09-25T14:58:26.892Z,17.10
2023-09-25T15:00:58.478Z,17.10
2023-09-25T15:03:45.540Z,17.00
2023-09-25T15:10:00.338Z,16.90
2023-09-25T15:12:29.098Z,16.80
2023-09-25T15:18:42.168Z,16.60
2023-09-25T15:21:09.544Z,16.50
2023-09-25T15:23:39.089Z,16.40
2023-09-25T15:26:17.791Z,16.40
2023-09-25T15:28:44.789Z,16.40
2023-09-25T15:31:11.787Z,16.40
2023-09-25T15:33:38.774Z,16.30
2023-09-25T15:36:05.714Z,16.20
2023-09-25T15:38:33.458Z,16.00
2023-09-25T15:41:00.288Z,15.90
2023-09-25T15:43:27.098Z,15.90
2023-09-25T15:45:54.419Z,16.00
2023-09-25T15:48:21.297Z,16.00
2023-09-25T15:50:48.140Z,16.00
2023-09-25T15:53:14.949Z,15.90
2023-09-25T15:55:41.947Z,16.00
2023-09-25T15:58:10.887Z,15.90
2023-09-25T16:01:12.372Z,15.90
2023-09-25T16:03:40.305Z,15.90
2023-09-25T16:06:07.275Z,15.90
2023-09-25T16:08:35.221Z,15.90
2023-09-25T16:11:02.977Z,16.00
2023-09-25T16:13:29.805Z,16.00
2023-09-25T16:15:56.841Z,16.00
2023-09-25T16:18:24.085Z,15.90
2023-09-25T16:20:50.942Z,15.80
2023-09-25T16:23:17.768Z,15.70
2023-09-25T16:25:45.112Z,15.60
2023-09-25T16:28:11.984Z,15.70
2023-09-25T16:30:57.391Z,15.50
2023-09-25T16:33:24.213Z,15.60
2023-09-25T16:35:51.054Z,15.50
2023-09-25T16:38:17.936Z,15.40
2023-09-25T16:40:46.911Z,15.20
2023-09-25T16:47:06.361Z,15.00
2023-09-25T16:49:33.258Z,15.00
2023-09-25T16:52:00.158Z,14.90
2023-09-25T16:54:27.089Z,14.60
2023-09-25T16:56:54.030Z,14.50
2023-09-25T16:59:21.077Z,14.40
2023-09-25T17:01:47.935Z,14.30
2023-09-25T17:04:14.929Z,14.20
2023-09-25T17:06:41.849Z,13.90
2023-09-25T17:09:08.674Z,13.70
2023-09-25T17:11:37.161Z,13.60
2023-09-25T17:14:06.229Z,13.80
2023-09-25T17:16:33.308Z,13.50
2023-09-25T17:19:00.433Z,13.50
2023-09-25T17:21:28.101Z,13.70
2023-09-25T17:23:54.971Z,13.90
2023-09-25T17:26:21.972Z,13.80
2023-09-25T17:28:53.120Z,13.90
2023-09-25T17:31:22.273Z,13.90
2023-09-25T17:33:50.923Z,13.80
2023-09-25T17:36:18.244Z,13.90
2023-09-25T17:38:45.083Z,14.00
2023-09-25T17:41:12.074Z,13.90
2023-09-25T17:43:39.298Z,13.80
2023-09-25T17:46:08.136Z,13.80
2023-09-25T17:48:37.216Z,13.90
2023-09-25T17:51:04.343Z,13.90
2023-09-25T18:01:10.406Z,13.80
2023-09-25T18:03:37.520Z,13.70
2023-09-25T18:06:04.688Z,13.70
2023-09-25T18:08:31.599Z,13.70
2023-09-25T18:10:58.606Z,13.70
2023-09-25T18:13:25.697Z,13.70
2023-09-25T18:15:54.984Z,13.60
2023-09-25T18:22:02.992Z,13.50
2023-09-25T18:24:30.640Z,13.60
2023-09-25T18:26:58.168Z,13.50
2023-09-25T18:29:25.181Z,13.40
2023-09-25T18:31:52.158Z,13.30
2023-09-25T18:34:20.070Z,13.20
2023-09-25T18:37:46.092Z,13.30
2023-09-25T18:40:13.078Z,13.10
2023-09-25T18:42:42.641Z,13.00
2023-09-25T18:45:11.355Z,13.10
2023-09-25T18:47:38.242Z,13.10
2023-09-25T18:53:52.119Z,12.70
2023-09-25T18:56:22.353Z,12.80
2023-09-25T18:58:50.556Z,12.90
2023-09-25T19:01:17.489Z,12.70
2023-09-25T19:03:44.559Z,12.60
2023-09-25T19:06:12.589Z,12.60
2023-09-25T19:12:25.536Z,12.70
2023-09-25T19:18:57.929Z,12.40
2023-09-25T19:22:13.231Z,12.40
2023-09-25T19:24:40.983Z,12.30
2023-09-25T19:27:07.874Z,12.40
2023-09-25T19:29:34.722Z,12.40
2023-09-25T19:32:01.698Z,12.20
2023-09-25T19:34:28.688Z,12.20
2023-09-25T19:36:55.576Z,12.30
2023-09-25T19:39:31.083Z,12.10
2023-09-25T19:41:58.205Z,12.00
2023-09-25T19:44:25.178Z,12.00
2023-09-25T19:50:44.180Z,12.30
2023-09-25T19:53:11.402Z,12.30
2023-09-25T19:59:32.530Z,11.90
2023-09-25T20:02:25.162Z,12.20
2023-09-25T20:04:52.177Z,12.20
2023-09-25T20:07:19.263Z,12.10
2023-09-25T20:09:46.258Z,11.90
2023-09-25T20:12:23.295Z,11.90
2023-09-25T20:18:53.626Z,11.90
2023-09-25T20:25:26.682Z,11.90
2023-09-25T20:35:43.592Z,11.70
2023-09-25T20:41:57.694Z,11.80
2023-09-25T20:48:11.718Z,11.50
2023-09-25T20:50:38.566Z,11.40
2023-09-25T20:53:05.601Z,11.50
2023-09-25T20:55:32.633Z,11.60
2023-09-25T20:58:01.358Z,11.70
2023-09-25T21:00:29.017Z,11.70
2023-09-25T21:02:56.327Z,11.50
2023-09-25T21:05:23.394Z,11.40
2023-09-25T21:11:20.169Z,11.40
2023-09-25T21:13:47.154Z,11.40
2023-09-25T21:16:14.069Z,11.50
2023-09-25T21:18:41.022Z,11.40
2023-09-25T21:21:09.048Z,11.50
2023-09-25T21:23:37.248Z,11.50
2023-09-25T21:26:04.092Z,11.40
2023-09-25T21:28:30.934Z,11.40
2023-09-25T21:30:57.849Z,11.30
2023-09-25T21:33:24.806Z,11.30
2023-09-25T21:35:51.701Z,11.40
2023-09-25T21:38:18.720Z,11.40
2023-09-25T21:40:45.670Z,11.30
2023-09-25T21:43:12.610Z,11.20
2023-09-25T21:45:39.565Z,11.20
2023-09-25T21:48:07.302Z,11.20
2023-09-25T21:50:34.249Z,11.00
2023-09-25T21:53:01.148Z,11.10
2023-09-25T21:55:28.068Z,11.10
2023-09-25T21:57:54.990Z,11.10
2023-09-25T22:00:24.925Z,11.20
2023-09-25T22:02:52.659Z,11.20
2023-09-25T22:05:19.771Z,11.30
2023-09-25T22:07:46.648Z,11.10
2023-09-25T22:10:14.872Z,11.10
2023-09-25T22:12:42.424Z,10.90
2023-09-25T22:15:09.791Z,10.90
2023-09-25T22:17:36.704Z,11.00
2023-09-25T22:20:06.000Z,11.10
2023-09-25T22:22:33.767Z,11.10
2023-09-25T22:25:00.857Z,11.10
2023-09-25T22:27:27.856Z,11.10
2023-09-25T22:29:55.022Z,11.10
2023-09-25T22:32:22.326Z,11.10
2023-09-25T22:34:49.551Z,10.90
2023-09-25T22:37:21.238Z,10.80
2023-09-25T22:39:48.200Z,10.80
2023-09-25T22:42:15.148Z,10.70
2023-09-25T22:44:42.134Z,10.70
2023-09-25T22:47:09.003Z,10.70
2023-09-25T22:49:36.108Z,10.80
2023-09-25T22:52:03.902Z,10.90
2023-09-25T22:54:30.795Z,11.00
2023-09-25T22:56:57.640Z,10.90
2023-09-25T22:59:24.518Z,10.80
2023-09-25T23:02:11.660Z,10.90
2023-09-25T23:08:27.796Z,10.70
2023-09-25T23:10:54.735Z,10.70
2023-09-25T23:13:21.622Z,10.80
2023-09-25T23:15:48.589Z,10.80
2023-09-25T23:18:15.588Z,10.70
2023-09-25T23:20:42.515Z,10.70
2023-09-25T23:23:09.343Z,10.70
2023-09-25T23:25:36.245Z,10.70
2023-09-25T23:28:04.645Z,10.70
2023-09-25T23:30:31.500Z,10.80
2023-09-25T23:32:58.466Z,10.80
2023-09-25T23:35:26.348Z,10.80
2023-09-25T23:37:53.174Z,10.80
2023-09-25T23:40:23.277Z,10.80
2023-09-25T23:42:50.848Z,10.60
2023-09-25T23:45:18.813Z,10.60
2023-09-25T23:47:47.948Z,10.70
2023-09-25T23:50:16.031Z,10.70
2023-09-25T23:52:44.184Z,10.60
2023-09-25T23:55:11.659Z,10.50
2023-09-25T23:57:40.617Z,10.50
